Time;durP1;ratioP1;P1;durP2;ratioP2;P2;SDS_P1;SDS_P2;PMS_P1;PMS_P2;Temp;Humidity;BMP_temperature;BMP_pressure;BME280_temperature;BME280_humidity;BME280_pressure;Samples;Min_cycle;Max_cycle;Signal;HPM_P1;HPM_P2
2023/07/06 00:00:16;;;;;;;0.38;0.38;;;;;;;19.78;100.00;99800.25;6093880;23;20070;-88
2023/07/06 00:02:42;;;;;;;0.55;0.30;;;;;;;19.77;100.00;99804.38;6070588;23;20063;-88
2023/07/06 00:05:09;;;;;;;0.38;0.38;;;;;;;19.81;100.00;99804.91;6094475;23;20014;-88
2023/07/06 00:07:35;;;;;;;0.00;0.00;;;;;;;19.78;100.00;99805.13;6095390;23;20038;-88
2023/07/06 00:10:04;;;;;;;0.32;0.20;;;;;;;19.80;100.00;99808.22;6070183;23;20017;-88
2023/07/06 00:12:30;;;;;;;1.40;0.55;;;;;;;19.79;100.00;99807.44;6070773;23;20036;-87
2023/07/06 00:14:55;;;;;;;0.35;0.30;;;;;;;19.75;100.00;99800.50;6071247;23;20328;-88
2023/07/06 00:17:21;;;;;;;0.13;0.13;;;;;;;19.72;100.00;99802.31;6073031;23;20041;-88
2023/07/06 00:19:48;;;;;;;1.45;1.17;;;;;;;19.74;100.00;99813.03;6072269;23;20042;-87
2023/07/06 00:22:14;;;;;;;8.82;0.70;;;;;;;19.70;100.00;99813.28;6097081;23;20018;-88
2023/07/06 00:24:42;;;;;;;0.82;0.73;;;;;;;19.69;100.00;99799.72;6072568;23;20017;-88
2023/07/06 00:27:08;;;;;;;0.17;0.17;;;;;;;19.63;100.00;99798.94;6122166;23;20096;-87
2023/07/06 00:29:35;;;;;;;0.00;0.00;;;;;;;19.67;100.00;99799.44;6096165;23;20009;-88
2023/07/06 00:32:15;;;;;;;0.03;0.03;;;;;;;19.61;100.00;99793.03;6094748;23;20085;-87
2023/07/06 00:34:44;;;;;;;0.93;0.70;;;;;;;19.63;100.00;99796.13;6049402;23;20091;-88
2023/07/06 00:37:12;;;;;;;0.00;0.00;;;;;;;19.62;100.00;99797.38;6070508;23;20387;-88
2023/07/06 00:39:38;;;;;;;0.28;0.28;;;;;;;19.65;100.00;99796.38;6048331;23;20017;-88
2023/07/06 00:42:05;;;;;;;1.02;0.32;;;;;;;19.64;100.00;99817.34;6071324;23;20323;-87
2023/07/06 00:44:54;;;;;;;0.28;0.28;;;;;;;19.61;100.00;99818.38;6073073;23;20359;-88
2023/07/06 00:47:37;;;;;;;0.55;0.38;;;;;;;19.63;100.00;99849.56;6095956;23;20010;-88
2023/07/06 00:50:07;;;;;;;0.40;0.40;;;;;;;19.69;100.00;99868.03;6047409;23;20053;-88
2023/07/06 00:52:35;;;;;;;10.52;0.82;;;;;;;19.77;100.00;99883.19;6096214;23;20021;-88
2023/07/06 00:55:03;;;;;;;0.20;0.20;;;;;;;19.75;100.00;99885.72;6095295;23;20077;-88
2023/07/06 00:57:29;;;;;;;0.28;0.28;;;;;;;19.74;100.00;99892.59;6096293;23;20002;-87
2023/07/06 00:59:56;;;;;;;0.70;0.20;;;;;;;19.56;100.00;99901.47;6121244;23;20017;-86
2023/07/06 01:16:37;;;;;;;0.52;0.52;;;;;;;18.89;100.00;99914.19;6150150;23;20022;-88
2023/07/06 01:19:36;;;;;;;0.00;0.00;;;;;;;18.83;100.00;99927.44;6076944;23;20072;-88
2023/07/06 01:22:23;;;;;;;0.20;0.17;;;;;;;18.77;100.00;99933.00;6098811;23;20021;-88
2023/07/06 01:25:10;;;;;;;0.45;0.40;;;;;;;18.58;100.00;99929.75;6100560;23;20106;-89
2023/07/06 01:27:51;;;;;;;0.25;0.20;;;;;;;18.31;100.00;99916.16;6099669;23;20820;-88
2023/07/06 01:30:26;;;;;;;0.00;0.00;;;;;;;18.17;100.00;99920.56;6075617;23;20048;-89
2023/07/06 01:33:09;;;;;;;0.30;0.30;;;;;;;17.98;100.00;99918.53;6099606;23;20026;-88
2023/07/06 01:35:42;;;;;;;2.85;0.30;;;;;;;17.92;100.00;99920.47;6123581;23;20654;-89
2023/07/06 01:38:10;;;;;;;0.38;0.32;;;;;;;17.61;100.00;99896.63;6083137;23;20010;-96
2023/07/06 01:40:36;;;;;;;0.20;0.20;;;;;;;17.57;100.00;99914.88;6081982;23;20016;-95
2023/07/06 01:43:02;;;;;;;0.00;0.00;;;;;;;17.67;100.00;99947.94;6083234;23;20018;-95
2023/07/06 01:45:29;;;;;;;0.22;0.20;;;;;;;17.35;100.00;99873.25;6083698;23;20380;-96
2023/07/06 01:47:59;;;;;;;0.40;0.40;;;;;;;17.37;100.00;99903.63;6084968;23;20080;-95
2023/07/06 01:50:38;;;;;;;2.55;1.20;;;;;;;17.18;100.00;99886.25;6091932;23;20073;-96
2023/07/06 01:58:35;;;;;;;2.00;0.28;;;;;;;17.51;100.00;99930.88;6151832;23;20041;-94
2023/07/06 02:01:12;;;;;;;0.22;0.22;;;;;;;17.27;100.00;99905.75;6100889;23;20017;-94
2023/07/06 02:03:39;;;;;;;0.57;0.52;;;;;;;17.18;100.00;99897.47;6077516;23;20026;-94
2023/07/06 02:06:07;;;;;;;0.00;0.00;;;;;;;17.35;100.00;99922.97;6091563;23;20010;-96
2023/07/06 02:08:33;;;;;;;0.63;0.25;;;;;;;17.15;100.00;99888.00;6100895;23;20151;-95
2023/07/06 02:11:01;;;;;;;0.00;0.00;;;;;;;16.99;100.00;99851.28;6122151;23;20023;-95
2023/07/06 02:13:27;;;;;;;0.47;0.15;;;;;;;17.09;100.00;99880.75;6114254;23;20017;-95
2023/07/06 02:15:53;;;;;;;0.00;0.00;;;;;;;16.98;100.00;99855.38;6110600;23;20065;-96
2023/07/06 02:18:19;;;;;;;0.20;0.20;;;;;;;17.18;100.00;99872.25;6138793;23;20096;-95
2023/07/06 02:20:46;;;;;;;0.50;0.50;;;;;;;17.06;100.00;99868.50;6140550;23;20030;-95
2023/07/06 02:23:13;;;;;;;0.55;0.35;;;;;;;17.01;100.00;99865.59;6091537;23;20018;-95
2023/07/06 02:25:42;;;;;;;0.77;0.55;;;;;;;17.27;100.00;99894.53;6113253;23;20014;-96
2023/07/06 02:28:08;;;;;;;0.10;0.10;;;;;;;17.20;100.00;99880.94;6063237;23;20009;-95
2023/07/06 02:30:34;;;;;;;0.65;0.30;;;;;;;17.23;100.00;99871.53;6085060;23;20354;-95
2023/07/06 02:33:01;;;;;;;0.28;0.25;;;;;;;17.23;100.00;99872.31;6087711;23;20013;-95
2023/07/06 02:35:27;;;;;;;0.10;0.10;;;;;;;17.17;100.00;99845.47;6111552;23;20006;-96
2023/07/06 02:37:54;;;;;;;0.05;0.05;;;;;;;17.51;100.00;99892.34;6112014;23;20025;-95
2023/07/06 02:40:20;;;;;;;0.38;0.38;;;;;;;17.21;100.00;99855.22;6136808;23;20013;-95
2023/07/06 02:42:46;;;;;;;0.47;0.30;;;;;;;17.27;100.00;99874.91;6137631;23;20009;-95
2023/07/06 02:45:12;;;;;;;0.00;0.00;;;;;;;17.29;100.00;99868.84;6135281;23;20014;-95
2023/07/06 02:47:41;;;;;;;0.10;0.10;;;;;;;17.11;100.00;99847.41;6091907;23;20033;-96
2023/07/06 02:50:11;;;;;;;0.10;0.10;;;;;;;17.08;100.00;99837.94;6135698;23;20010;-96
2023/07/06 02:52:44;;;;;;;0.52;0.40;;;;;;;17.13;100.00;99858.91;6116025;23;20017;-95
2023/07/06 02:55:10;;;;;;;;;;;;;;;17.38;100.00;99905.16;6112131;23;20029;-96
2023/07/06 02:57:39;;;;;;;0.30;0.30;;;;;;;17.11;100.00;99878.22;6109650;23;19912;-94
2023/07/06 03:00:14;;;;;;;0.00;0.00;;;;;;;17.40;100.00;99917.44;6111458;23;19998;-95
2023/07/06 03:02:44;;;;;;;2.92;0.45;;;;;;;17.27;100.00;99895.31;6152335;23;20345;-95
2023/07/06 03:05:11;;;;;;;0.00;0.00;;;;;;;17.27;100.00;99917.75;6118754;23;20021;-96
2023/07/06 03:07:38;;;;;;;0.00;0.00;;;;;;;17.12;100.00;99891.00;6140858;23;20033;-96
2023/07/06 03:10:05;;;;;;;0.20;0.17;;;;;;;17.09;100.00;99889.94;6142842;23;20010;-96
2023/07/06 03:12:36;;;;;;;0.32;0.15;;;;;;;17.17;100.00;99915.53;6137615;23;20010;-96
2023/07/06 03:15:07;;;;;;;0.13;0.10;;;;;;;17.27;100.00;99925.38;6114521;23;20335;-96
2023/07/06 03:17:33;;;;;;;0.43;0.40;;;;;;;17.25;100.00;99920.28;6112797;23;20020;-96
2023/07/06 03:19:59;;;;;;;0.00;0.00;;;;;;;17.08;100.00;99896.03;6135540;23;20386;-96
2023/07/06 03:22:25;;;;;;;0.00;0.00;;;;;;;17.37;100.00;99954.09;6112050;23;20013;-96
2023/07/06 03:24:51;;;;;;;0.63;0.63;;;;;;;17.06;100.00;99912.56;6140409;23;20052;-96
2023/07/06 03:27:17;;;;;;;0.40;0.40;;;;;;;17.02;100.00;99921.16;6140580;23;20006;-96
2023/07/06 03:29:43;;;;;;;0.32;0.32;;;;;;;16.92;100.00;99918.94;6110532;23;20006;-96
2023/07/06 03:32:09;;;;;;;0.70;0.45;;;;;;;16.94;100.00;99922.03;6112537;23;20038;-96
2023/07/06 03:34:35;;;;;;;0.22;0.22;;;;;;;16.81;100.00;99901.94;6137178;23;20013;-96
2023/07/06 03:37:04;;;;;;;0.28;0.28;;;;;;;16.81;100.00;99904.75;6093177;23;20014;-96
2023/07/06 03:39:30;;;;;;;0.20;0.20;;;;;;;16.77;100.00;99891.72;6123550;23;19998;-96
2023/07/06 03:44:32;;;;;;;0.10;0.10;;;;;;;16.53;100.00;99879.78;6150792;23;20052;-90
2023/07/06 03:46:58;;;;;;;0.00;0.00;;;;;;;16.79;100.00;99933.22;6075657;23;20024;-91
2023/07/06 03:49:24;;;;;;;0.22;0.22;;;;;;;16.71;100.00;99910.44;6100649;23;20017;-90
2023/07/06 03:51:49;;;;;;;0.52;0.47;;;;;;;16.41;100.00;99875.25;6077522;23;20035;-90
2023/07/06 03:54:15;;;;;;;0.57;0.57;;;;;;;16.56;100.00;99912.41;6077055;23;20013;-90
2023/07/06 03:56:42;;;;;;;0.32;0.32;;;;;;;16.52;100.00;99909.03;6077511;23;20336;-90
2023/07/06 03:59:08;;;;;;;0.15;0.15;;;;;;;16.44;100.00;99885.47;6078490;23;20025;-89
2023/07/06 04:01:33;;;;;;;0.70;0.57;;;;;;;16.68;100.00;99922.59;6077289;23;20013;-91
2023/07/06 04:04:00;;;;;;;0.20;0.20;;;;;;;16.72;100.00;99934.38;6102056;23;20013;-91
2023/07/06 04:06:28;;;;;;;0.57;0.57;;;;;;;16.53;100.00;99907.78;6076764;23;20017;-90
2023/07/06 04:08:56;;;;;;;0.15;0.15;;;;;;;16.73;100.00;99938.75;6077205;23;20344;-90
2023/07/06 04:11:25;;;;;;;0.20;0.20;;;;;;;16.79;100.00;99948.00;6101602;23;20446;-90
2023/07/06 04:13:57;;;;;;;0.90;0.45;;;;;;;16.65;100.00;99923.56;6100693;23;20022;-91
2023/07/06 04:16:22;;;;;;;0.45;0.40;;;;;;;16.86;100.00;99948.91;6102174;23;20093;-91
2023/07/06 04:18:50;;;;;;;0.38;0.38;;;;;;;16.76;100.00;99928.59;6101830;23;20530;-91
2023/07/06 04:21:19;;;;;;;0.20;0.20;;;;;;;16.89;100.00;99939.53;6150744;23;20017;-91
2023/07/06 04:23:48;;;;;;;0.55;0.20;;;;;;;16.98;100.00;99945.81;6125142;23;20014;-91
2023/07/06 04:26:15;;;;;;;0.45;0.45;;;;;;;17.03;100.00;99944.34;6100917;23;20093;-91
2023/07/06 04:28:42;;;;;;;0.45;0.30;;;;;;;16.89;100.00;99925.50;6126037;23;20010;-90
2023/07/06 04:31:08;;;;;;;0.40;0.40;;;;;;;16.88;100.00;99913.53;6101146;23;20013;-90
2023/07/06 04:33:34;;;;;;;0.00;0.00;;;;;;;16.74;100.00;99897.50;6125347;23;20017;-90
2023/07/06 04:36:02;;;;;;;0.10;0.10;;;;;;;16.91;100.00;99906.16;6124689;23;20013;-91
2023/07/06 04:38:29;;;;;;;0.80;0.45;;;;;;;16.96;100.00;99908.31;6125272;23;20037;-91
2023/07/06 04:40:56;;;;;;;0.77;0.75;;;;;;;16.96;100.00;99897.88;6126570;23;20014;-90
2023/07/06 04:43:22;;;;;;;0.10;0.10;;;;;;;17.22;100.00;99928.88;6150476;23;20526;-90
2023/07/06 04:45:48;;;;;;;0.20;0.10;;;;;;;17.29;100.00;99925.66;6124373;23;20013;-91
2023/07/06 04:48:16;;;;;;;0.73;0.50;;;;;;;17.20;100.00;99922.97;6124983;23;20327;-90
2023/07/06 04:50:42;;;;;;;0.20;0.20;;;;;;;17.21;100.00;99924.53;6101272;23;20093;-90
2023/07/06 04:53:09;;;;;;;1.20;0.82;;;;;;;17.36;100.00;99956.09;6124661;23;20040;-90
2023/07/06 04:55:35;;;;;;;0.85;0.77;;;;;;;17.24;100.00;99929.16;6100998;23;20487;-92
2023/07/06 04:58:01;;;;;;;0.10;0.10;;;;;;;17.15;100.00;99920.84;6123986;23;20519;-90
2023/07/06 05:00:29;;;;;;;0.43;0.32;;;;;;;17.34;100.00;99949.44;6124051;23;20423;-91
2023/07/06 05:02:58;;;;;;;0.22;0.22;;;;;;;17.28;100.00;99929.72;6100170;23;20076;-90
2023/07/06 05:05:25;;;;;;;0.08;0.08;;;;;;;17.41;100.00;99963.84;6100064;23;20023;-90
2023/07/06 05:07:51;;;;;;;0.47;0.47;;;;;;;17.43;100.00;99966.91;6124851;23;20014;-90
2023/07/06 05:10:17;;;;;;;0.55;0.25;;;;;;;17.43;100.00;99975.34;6100887;23;20032;-90
2023/07/06 05:12:44;;;;;;;0.25;0.20;;;;;;;17.31;100.00;99950.44;6100183;23;20092;-90
2023/07/06 05:15:10;;;;;;;0.00;0.00;;;;;;;17.25;100.00;99925.09;6096266;23;20502;-92
2023/07/06 05:17:37;;;;;;;0.08;0.08;;;;;;;17.34;100.00;99949.44;6103637;23;20049;-96
2023/07/06 05:20:06;;;;;;;0.35;0.35;;;;;;;17.25;100.00;99939.13;6102629;23;20014;-96
2023/07/06 05:22:32;;;;;;;1.45;0.88;;;;;;;17.31;100.00;99948.38;6080815;23;20064;-95
2023/07/06 05:24:58;;;;;;;1.65;0.75;;;;;;;17.23;100.00;99938.81;6105341;23;20851;-96
2023/07/06 05:27:24;;;;;;;5.50;1.30;;;;;;;17.24;100.00;99923.53;6087440;23;20065;-96
2023/07/06 05:29:51;;;;;;;0.20;0.20;;;;;;;17.31;100.00;99933.59;6107553;23;20006;-96
2023/07/06 05:32:16;;;;;;;0.20;0.20;;;;;;;17.32;100.00;99921.88;6110709;23;20061;-96
2023/07/06 05:34:42;;;;;;;0.10;0.10;;;;;;;17.29;100.00;99922.88;6082416;23;20148;-96
2023/07/06 05:37:08;;;;;;;0.05;0.05;;;;;;;17.50;100.00;99958.13;6104396;23;20018;-96
2023/07/06 05:39:33;;;;;;;0.22;0.20;;;;;;;17.42;100.00;99928.16;6081141;23;20009;-96
2023/07/06 05:41:59;;;;;;;0.57;0.40;;;;;;;17.46;100.00;99928.75;6081471;23;20076;-96
2023/07/06 05:44:25;;;;;;;0.52;0.50;;;;;;;17.61;100.00;99949.13;6081762;23;20061;-96
2023/07/06 05:46:50;;;;;;;0.25;0.25;;;;;;;17.65;100.00;99947.69;6072711;23;20009;-91
2023/07/06 05:49:16;;;;;;;0.00;0.00;;;;;;;17.54;100.00;99927.84;6121583;23;20072;-91
2023/07/06 05:51:41;;;;;;;0.10;0.10;;;;;;;17.69;100.00;99945.44;6147773;23;20097;-91
2023/07/06 05:54:07;;;;;;;1.02;0.55;;;;;;;17.79;100.00;99946.09;6124070;23;20444;-91
2023/07/06 05:56:32;;;;;;;0.43;0.35;;;;;;;17.86;100.00;99945.69;6149003;23;20510;-92
2023/07/06 05:59:01;;;;;;;0.28;0.28;;;;;;;17.73;100.00;99927.63;6125113;23;20005;-92
2023/07/06 06:01:29;;;;;;;0.20;0.20;;;;;;;18.06;100.00;99964.56;6123919;23;20436;-91
2023/07/06 06:03:55;;;;;;;4.97;1.98;;;;;;;18.01;100.00;99945.59;6121186;23;20045;-91
2023/07/06 06:06:21;;;;;;;0.57;0.50;;;;;;;18.10;100.00;99951.09;6122624;23;20014;-90
2023/07/06 06:08:48;;;;;;;0.20;0.20;;;;;;;18.32;100.00;99973.81;6130260;23;20017;-89
2023/07/06 06:11:15;;;;;;;0.00;0.00;;;;;;;18.18;100.00;99941.75;6102684;23;20021;-91
2023/07/06 06:13:43;;;;;;;0.20;0.20;;;;;;;18.37;100.00;99956.28;6095625;23;20083;-91
2023/07/06 06:16:11;;;;;;;0.98;0.30;;;;;;;18.71;100.00;99973.53;6099191;23;20080;-89
2023/07/06 06:18:39;;;;;;;0.03;0.03;;;;;;;18.77;100.00;99982.78;6147911;23;20013;-88
2023/07/06 06:21:10;;;;;;;0.00;0.00;;;;;;;18.61;100.00;99954.03;6148190;23;20066;-88
2023/07/06 06:23:36;;;;;;;0.28;0.28;;;;;;;18.86;100.00;99977.78;6148187;23;20032;-88
2023/07/06 06:26:02;;;;;;;0.32;0.32;;;;;;;18.69;100.00;99939.53;6148577;23;20013;-88
2023/07/06 06:28:28;;;;;;;1.30;0.95;;;;;;;18.97;100.00;99979.94;6121184;23;20498;-87
2023/07/06 06:30:55;;;;;;;0.20;0.20;;;;;;;18.91;100.00;99977.09;6098852;23;20005;-94
2023/07/06 06:33:20;;;;;;;0.30;0.30;;;;;;;18.95;100.00;99971.25;6099644;23;20013;-94
2023/07/06 06:35:46;;;;;;;0.10;0.10;;;;;;;19.03;100.00;99986.41;6148038;23;20017;-92
2023/07/06 06:38:14;;;;;;;0.20;0.20;;;;;;;19.15;100.00;99996.47;6098792;23;20077;-93
2023/07/06 06:40:40;;;;;;;0.50;0.50;;;;;;;19.21;100.00;99983.22;6123141;23;20084;-94
2023/07/06 06:43:05;;;;;;;9.10;0.25;;;;;;;19.30;100.00;99980.25;6092802;23;20089;-93
2023/07/06 06:45:32;;;;;;;0.10;0.08;;;;;;;19.34;100.00;99975.16;6069061;23;20014;-93
2023/07/06 06:47:58;;;;;;;0.77;0.30;;;;;;;19.39;100.00;99971.63;6093703;23;20021;-94
2023/07/06 06:50:24;;;;;;;0.88;0.80;;;;;;;19.43;100.00;99960.19;6093146;23;20017;-93
2023/07/06 06:52:50;;;;;;;0.40;0.40;;;;;;;19.54;100.00;99961.03;6093546;23;20436;-94
2023/07/06 06:55:16;;;;;;;0.32;0.32;;;;;;;19.81;100.00;99973.00;6044876;23;20076;-93
2023/07/06 06:57:42;;;;;;;1.17;1.02;;;;;;;19.95;100.00;99972.03;6068438;23;20051;-87
2023/07/06 07:00:14;;;;;;;1.95;0.80;;;;;;;20.00;100.00;99974.13;6118419;23;20351;-87
2023/07/06 07:02:40;;;;;;;0.32;0.32;;;;;;;20.34;100.00;99967.41;6120528;23;20010;-89
2023/07/06 07:05:07;;;;;;;0.85;0.85;;;;;;;20.68;100.00;99936.53;6093888;23;20068;-87
2023/07/06 07:07:38;;;;;;;0.10;0.10;;;;;;;21.11;100.00;99954.78;6094302;23;20507;-88
2023/07/06 07:10:10;;;;;;;1.92;0.30;;;;;;;21.47;100.00;99972.00;6094650;23;20021;-87
2023/07/06 07:12:39;;;;;;;0.10;0.10;;;;;;;21.70;100.00;99957.38;6120443;23;20018;-89
2023/07/06 07:15:08;;;;;;;1.10;0.95;;;;;;;21.69;100.00;99949.41;6093897;23;20018;-89
2023/07/06 07:17:34;;;;;;;0.22;0.22;;;;;;;21.66;100.00;99961.72;6095084;23;20013;-88
2023/07/06 07:20:00;;;;;;;0.30;0.30;;;;;;;21.84;100.00;99947.06;6094476;23;20014;-90
2023/07/06 07:22:27;;;;;;;1.70;0.77;;;;;;;22.12;100.00;99961.88;6069903;23;20033;-89
2023/07/06 07:24:53;;;;;;;0.15;0.15;;;;;;;22.12;100.00;99950.59;6118820;23;20014;-89
2023/07/06 07:27:19;;;;;;;0.55;0.55;;;;;;;22.54;100.00;99969.19;6069984;23;20013;-89
2023/07/06 07:29:47;;;;;;;0.82;0.55;;;;;;;22.54;100.00;99923.19;6071186;23;20024;-88
2023/07/06 07:32:13;;;;;;;0.32;0.15;;;;;;;22.73;100.00;99943.91;6092899;23;20010;-89
2023/07/06 07:34:40;;;;;;;0.00;0.00;;;;;;;22.87;100.00;99951.28;6094536;23;20483;-90
2023/07/06 07:37:10;;;;;;;0.60;0.52;;;;;;;22.65;100.00;99934.41;6094683;23;20452;-88
2023/07/06 07:39:37;;;;;;;1.17;1.02;;;;;;;22.92;100.00;99953.31;6067513;23;20038;-88
2023/07/06 07:42:03;;;;;;;0.20;0.20;;;;;;;23.17;100.00;99966.22;6043387;23;20975;-88
2023/07/06 07:44:29;;;;;;;0.20;0.20;;;;;;;23.46;99.41;99970.41;6069230;23;20014;-88
2023/07/06 07:46:55;;;;;;;0.10;0.10;;;;;;;23.67;95.42;99965.06;6043147;23;20459;-88
2023/07/06 07:49:21;;;;;;;0.30;0.30;;;;;;;23.78;90.44;99962.13;6042848;23;20049;-89
2023/07/06 07:51:46;;;;;;;0.00;0.00;;;;;;;24.08;88.42;99974.19;6066958;23;20444;-89
2023/07/06 07:54:12;;;;;;;0.50;0.50;;;;;;;23.98;81.82;99970.16;6068528;23;20108;-89
2023/07/06 07:56:38;;;;;;;0.50;0.50;;;;;;;23.99;87.68;99959.59;6044023;23;20014;-90
2023/07/06 07:59:04;;;;;;;3.65;0.68;;;;;;;24.24;88.61;99968.88;6068119;23;20032;-89
2023/07/06 08:01:30;;;;;;;0.28;0.28;;;;;;;24.33;86.42;99943.00;6068100;23;20020;-89
2023/07/06 08:03:57;;;;;;;0.10;0.10;;;;;;;24.51;80.72;99982.69;6070313;23;20010;-90
2023/07/06 08:06:22;;;;;;;0.30;0.30;;;;;;;24.73;82.89;99975.97;6091595;23;20017;-89
2023/07/06 08:08:48;;;;;;;1.52;0.63;;;;;;;24.86;78.25;99978.91;6068071;23;20013;-89
2023/07/06 08:11:22;;;;;;;0.20;0.20;;;;;;;25.01;77.85;99961.41;6068563;23;20017;-89
2023/07/06 08:13:53;;;;;;;0.50;0.50;;;;;;;24.86;77.89;99972.47;6066687;23;20597;-90
2023/07/06 08:16:20;;;;;;;0.45;0.38;;;;;;;24.89;77.33;100000.53;6069327;23;20014;-89
2023/07/06 08:18:46;;;;;;;0.88;0.32;;;;;;;24.77;71.73;99976.44;6067311;23;20085;-89
2023/07/06 08:21:13;;;;;;;0.13;0.13;;;;;;;24.98;72.15;100003.00;6068464;23;20060;-89
2023/07/06 08:23:41;;;;;;;0.25;0.25;;;;;;;25.02;67.58;100000.63;6092193;23;20109;-89
2023/07/06 08:26:09;;;;;;;0.20;0.20;;;;;;;24.86;72.12;99984.59;6093660;23;20049;-89
2023/07/06 08:28:34;;;;;;;0.75;0.50;;;;;;;24.77;70.46;99982.09;6043069;23;20001;-89
2023/07/06 08:31:03;;;;;;;0.93;0.32;;;;;;;24.86;68.16;100001.63;6114422;23;20037;-89
2023/07/06 08:33:35;;;;;;;1.45;0.65;;;;;;;24.86;69.53;99995.94;6067524;23;20009;-89
2023/07/06 08:36:03;;;;;;;0.77;0.23;;;;;;;25.12;71.54;99994.53;6068837;23;20064;-93
2023/07/06 08:38:31;;;;;;;0.63;0.63;;;;;;;25.34;67.82;99971.47;6069631;23;20033;-93
2023/07/06 08:40:59;;;;;;;0.28;0.28;;;;;;;25.84;70.81;99991.28;6045198;23;20021;-93
2023/07/06 08:43:25;;;;;;;0.68;0.47;;;;;;;26.07;63.54;99973.81;6084120;23;20100;-93
2023/07/06 08:45:58;;;;;;;0.98;0.57;;;;;;;26.39;62.61;99985.88;6074148;23;20090;-94
2023/07/06 08:48:25;;;;;;;0.98;0.90;;;;;;;26.47;61.54;99985.97;6075745;23;20018;-93
2023/07/06 08:51:13;;;;;;;0.93;0.85;;;;;;;26.54;56.24;99988.91;6120284;23;20021;-92
2023/07/06 08:53:48;;;;;;;0.35;0.35;;;;;;;26.73;59.88;99995.22;6122740;23;20048;-92
2023/07/06 08:56:14;;;;;;;0.22;0.22;;;;;;;26.55;59.02;100004.66;6074200;23;20459;-93
2023/07/06 08:58:42;;;;;;;0.75;0.75;;;;;;;26.81;57.46;99996.06;6121548;23;20009;-92
2023/07/06 09:01:11;;;;;;;0.50;0.50;;;;;;;26.75;44.84;99992.59;6097680;23;20016;-92
2023/07/06 09:03:44;;;;;;;1.00;0.50;;;;;;;26.88;45.61;99991.81;6122490;23;20018;-93
2023/07/06 09:06:18;;;;;;;0.98;0.68;;;;;;;26.93;46.22;99984.47;6148427;23;20079;-92
2023/07/06 09:08:48;;;;;;;0.43;0.38;;;;;;;26.82;46.97;99985.44;6122673;23;20313;-92
2023/07/06 09:11:14;;;;;;;0.10;0.10;;;;;;;27.07;47.70;99997.34;6098179;23;20041;-92
2023/07/06 09:13:49;;;;;;;0.30;0.30;;;;;;;27.33;46.59;100014.34;6121239;23;20016;-92
2023/07/06 09:16:19;;;;;;;1.60;0.55;;;;;;;27.44;45.50;100011.22;6074696;23;20335;-92
2023/07/06 09:18:48;;;;;;;0.32;0.32;;;;;;;27.54;43.82;100011.53;6123725;23;20041;-92
2023/07/06 09:21:16;;;;;;;0.10;0.10;;;;;;;27.58;43.95;100015.53;6098262;23;20097;-93
2023/07/06 09:23:45;;;;;;;1.00;0.63;;;;;;;27.84;44.06;100031.72;6097888;23;20013;-92
2023/07/06 09:26:19;;;;;;;0.60;0.60;;;;;;;27.60;41.75;100018.59;6148053;23;20410;-93
2023/07/06 09:28:45;;;;;;;0.20;0.20;;;;;;;27.89;42.17;100016.56;6121958;23;20040;-92
2023/07/06 09:31:19;;;;;;;0.20;0.20;;;;;;;27.96;42.41;100003.69;6121749;23;20009;-89
2023/07/06 09:33:49;;;;;;;0.55;0.20;;;;;;;28.06;42.25;100010.44;6122171;23;20013;-87
2023/07/06 09:36:23;;;;;;;1.10;0.95;;;;;;;27.81;41.84;99999.41;6148646;23;20076;-89
2023/07/06 09:38:48;;;;;;;0.30;0.30;;;;;;;27.42;41.44;99996.75;6121517;23;20075;-89
2023/07/06 09:41:27;;;;;;;0.77;0.50;;;;;;;27.79;42.74;100016.28;6098711;23;20010;-89
2023/07/06 09:43:57;;;;;;;0.65;0.40;;;;;;;27.60;41.21;100004.34;6120949;23;20018;-89
2023/07/06 09:46:26;;;;;;;0.38;0.38;;;;;;;27.95;42.19;100013.56;6148850;23;20454;-89
2023/07/06 09:48:52;;;;;;;3.08;1.00;;;;;;;27.82;41.12;100022.97;6148011;23;20017;-90
2023/07/06 09:51:24;;;;;;;0.50;0.50;;;;;;;27.72;42.16;100005.59;6098126;23;20010;-91
2023/07/06 09:53:59;;;;;;;1.08;0.68;;;;;;;27.86;42.42;100029.09;6122275;23;20344;-90
2023/07/06 09:56:25;;;;;;;0.55;0.40;;;;;;;27.97;42.45;100016.63;6123019;23;20396;-90
2023/07/06 09:58:52;;;;;;;0.20;0.20;;;;;;;27.83;41.41;100019.56;6096989;23;20001;-91
2023/07/06 10:01:36;;;;;;;0.20;0.20;;;;;;;27.91;42.55;100013.13;6098266;23;20045;-92
2023/07/06 10:04:19;;;;;;;0.30;0.30;;;;;;;28.04;42.12;100007.34;6148205;23;20017;-90
2023/07/06 10:06:51;;;;;;;0.40;0.40;;;;;;;28.38;41.86;100005.16;6147464;23;20013;-90
2023/07/06 10:09:25;;;;;;;0.73;0.73;;;;;;;28.40;42.99;100007.41;6148533;23;20017;-91
2023/07/06 10:11:56;;;;;;;0.38;0.38;;;;;;;28.46;41.83;100005.94;6072873;23;20373;-91
2023/07/06 10:14:30;;;;;;;0.85;0.85;;;;;;;28.83;42.32;100010.34;6122299;23;20021;-91
2023/07/06 10:17:02;;;;;;;0.25;0.25;;;;;;;29.15;43.53;100007.78;6122273;23;20020;-88
2023/07/06 10:19:31;;;;;;;0.57;0.30;;;;;;;29.34;42.77;100003.81;6097802;23;20017;-88
2023/07/06 10:22:00;;;;;;;1.27;0.88;;;;;;;29.35;40.88;100014.69;6096465;23;20398;-89
2023/07/06 10:24:55;;;;;;;1.17;0.90;;;;;;;29.20;40.24;100006.03;6148700;23;20021;-88
2023/07/06 10:27:29;;;;;;;0.28;0.28;;;;;;;29.26;42.07;99995.22;6097209;23;20379;-88
2023/07/06 10:30:00;;;;;;;0.38;0.38;;;;;;;28.87;40.51;99987.91;6072862;23;20017;-89
2023/07/06 10:32:41;;;;;;;0.52;0.52;;;;;;;28.90;40.35;99986.00;6097718;23;20036;-88
2023/07/06 10:35:21;;;;;;;0.20;0.20;;;;;;;28.96;41.85;99969.44;6096849;23;20451;-89
2023/07/06 10:37:48;;;;;;;0.80;0.65;;;;;;;29.35;38.21;99986.13;6098163;23;20013;-89
2023/07/06 10:40:26;;;;;;;0.43;0.43;;;;;;;29.73;37.93;99991.09;6121836;23;20009;-89
2023/07/06 10:43:20;;;;;;;0.50;0.43;;;;;;;29.64;37.40;99990.31;6097374;23;20021;-88
2023/07/06 10:45:50;;;;;;;0.20;0.20;;;;;;;29.91;38.20;99993.59;6097309;23;20388;-91
2023/07/06 10:48:25;;;;;;;0.75;0.70;;;;;;;29.84;37.48;99990.72;6122886;23;20009;-93
2023/07/06 10:51:15;;;;;;;0.52;0.45;;;;;;;29.35;38.58;100002.50;6149315;23;20455;-92
2023/07/06 10:53:43;;;;;;;0.65;0.65;;;;;;;29.42;38.58;99996.78;6075369;23;20014;-92
2023/07/06 10:56:21;;;;;;;0.20;0.20;;;;;;;29.45;35.96;99989.94;6123857;23;20558;-93
2023/07/06 10:58:48;;;;;;;3.40;0.30;;;;;;;29.67;37.62;99990.53;6097771;23;20021;-89
2023/07/06 11:01:16;;;;;;;0.88;0.47;;;;;;;29.74;39.10;99995.47;6146791;23;20017;-88
2023/07/06 11:03:42;;;;;;;0.57;0.50;;;;;;;29.73;37.67;99991.84;6096850;23;20385;-89
2023/07/06 11:06:15;;;;;;;1.08;0.60;;;;;;;29.97;37.43;99988.44;6096093;23;20611;-89
2023/07/06 11:09:10;;;;;;;0.55;0.55;;;;;;;29.91;37.68;99992.84;6097057;23;20021;-89
2023/07/06 11:12:04;;;;;;;0.47;0.47;;;;;;;29.49;38.54;99973.16;6120786;23;20051;-88
2023/07/06 11:14:35;;;;;;;0.43;0.40;;;;;;;29.39;38.06;99983.66;6089371;23;20029;-89
2023/07/06 11:17:02;;;;;;;0.47;0.47;;;;;;;29.32;38.14;99975.09;6148300;23;20018;-89
2023/07/06 11:19:33;;;;;;;0.63;0.63;;;;;;;29.32;36.87;99981.53;6146586;23;20436;-90
2023/07/06 11:22:04;;;;;;;0.55;0.52;;;;;;;29.35;36.03;99991.84;6097669;23;20104;-89
2023/07/06 11:24:34;;;;;;;1.05;0.40;;;;;;;29.42;36.82;99973.94;6096472;23;20036;-89
2023/07/06 11:27:04;;;;;;;0.10;0.10;;;;;;;29.98;35.99;99974.91;6121906;23;20020;-89
2023/07/06 11:29:30;;;;;;;1.30;0.88;;;;;;;29.95;35.34;99973.19;6121787;23;20092;-88
2023/07/06 11:32:18;;;;;;;0.63;0.63;;;;;;;29.62;36.49;99987.28;6146970;23;20444;-89
2023/07/06 11:35:21;;;;;;;1.20;1.02;;;;;;;29.25;35.82;99987.22;6146069;23;20044;-89
2023/07/06 11:37:56;;;;;;;1.65;0.90;;;;;;;28.87;36.18;99975.72;6121707;23;20033;-89
2023/07/06 11:40:54;;;;;;;0.35;0.35;;;;;;;28.98;36.81;99981.06;6097236;23;20102;-90
2023/07/06 11:44:08;;;;;;;0.77;0.77;;;;;;;28.73;35.90;99992.97;6097649;23;20100;-92
2023/07/06 11:47:07;;;;;;;0.77;0.70;;;;;;;28.55;35.38;99973.28;6090835;23;20108;-93
2023/07/06 11:49:48;;;;;;;0.35;0.32;;;;;;;28.78;35.12;99993.38;6122542;23;20017;-93
2023/07/06 11:52:20;;;;;;;0.45;0.45;;;;;;;28.71;35.43;99981.34;6124705;23;20013;-95
2023/07/06 11:55:04;;;;;;;1.00;0.77;;;;;;;28.67;35.75;99998.03;6098215;23;20025;-91
2023/07/06 11:57:44;;;;;;;0.85;0.85;;;;;;;28.73;35.43;99995.81;6076307;23;20084;-91
2023/07/06 12:02:56;;;;;;;0.75;0.50;;;;;;;28.78;34.70;99977.00;6124245;23;20088;-91